createdAt,value
2019-05-30T00:00:15.969Z,13.79
2019-05-30T00:02:32.629Z,13.71
2019-05-30T00:05:02.570Z,13.75
2019-05-30T00:07:31.362Z,13.56
2019-05-30T00:10:00.567Z,13.55
2019-05-30T00:12:29.170Z,13.56
2019-05-30T00:14:58.601Z,13.39
2019-05-30T00:17:27.229Z,13.42
2019-05-30T00:19:56.754Z,13.46
2019-05-30T00:22:25.328Z,13.25
2019-05-30T00:24:53.762Z,12.97
2019-05-30T00:27:22.191Z,12.99
2019-05-30T00:29:50.744Z,12.93
2019-05-30T00:32:19.180Z,12.72
2019-05-30T00:34:47.698Z,12.62
2019-05-30T00:37:16.146Z,12.54
2019-05-30T00:39:44.571Z,12.59
2019-05-30T00:42:13.372Z,12.39
2019-05-30T00:44:41.841Z,12.23
2019-05-30T00:47:10.281Z,12.33
2019-05-30T00:49:38.704Z,12.13
2019-05-30T00:52:07.232Z,12.11
2019-05-30T00:54:35.665Z,12.00
2019-05-30T00:57:04.924Z,11.99
2019-05-30T00:59:33.562Z,11.91
2019-05-30T01:02:02.812Z,11.79
2019-05-30T01:04:31.448Z,12.22
2019-05-30T01:07:00.917Z,11.92
2019-05-30T01:09:29.594Z,11.57
2019-05-30T01:11:59.101Z,11.52
2019-05-30T01:14:27.932Z,11.49
2019-05-30T01:16:57.087Z,11.37
2019-05-30T01:19:25.640Z,11.35
2019-05-30T01:21:54.093Z,11.32
2019-05-30T01:24:22.523Z,11.43
2019-05-30T01:26:51.040Z,11.43
2019-05-30T01:29:19.514Z,11.13
2019-05-30T01:31:48.012Z,11.33
2019-05-30T01:34:16.523Z,11.26
2019-05-30T01:36:44.989Z,11.28
2019-05-30T01:39:13.419Z,11.09
2019-05-30T01:41:41.847Z,10.93
2019-05-30T01:44:10.327Z,10.93
2019-05-30T01:46:38.830Z,10.85
2019-05-30T01:49:08.649Z,11.01
2019-05-30T01:51:37.356Z,10.92
2019-05-30T01:54:06.639Z,10.68
2019-05-30T01:56:35.142Z,10.61
2019-05-30T01:59:04.785Z,10.75
2019-05-30T02:01:33.294Z,10.52
2019-05-30T02:04:03.291Z,10.43
2019-05-30T02:06:31.978Z,10.61
2019-05-30T02:09:01.091Z,10.51
2019-05-30T02:11:29.748Z,10.25
2019-05-30T02:13:59.466Z,10.21
2019-05-30T02:16:28.161Z,10.42
2019-05-30T02:18:56.610Z,10.50
2019-05-30T02:21:25.074Z,10.21
2019-05-30T02:23:53.515Z,10.05
2019-05-30T02:26:21.953Z,10.29
2019-05-30T02:28:50.556Z,10.12
2019-05-30T02:31:37.660Z,10.18
2019-05-30T02:33:49.161Z,9.98
2019-05-30T02:36:17.781Z,10.02
2019-05-30T02:38:46.212Z,10.04
2019-05-30T02:41:14.719Z,10.09
2019-05-30T02:43:43.746Z,9.99
2019-05-30T02:46:12.688Z,10.12
2019-05-30T02:48:57.270Z,10.13
2019-05-30T02:51:12.683Z,10.05
2019-05-30T02:53:41.378Z,10.08
2019-05-30T02:56:10.761Z,10.17
2019-05-30T02:58:40.136Z,10.08
2019-05-30T03:01:09.279Z,10.06
2019-05-30T03:03:38.736Z,9.88
2019-05-30T03:06:09.265Z,9.82
2019-05-30T03:08:37.611Z,9.73
2019-05-30T03:11:07.893Z,9.82
2019-05-30T03:13:36.741Z,9.59
2019-05-30T03:16:07.492Z,9.79
2019-05-30T03:18:35.567Z,9.85
2019-05-30T03:21:05.711Z,9.88
2019-05-30T03:23:34.559Z,9.94
2019-05-30T03:26:04.778Z,9.65
2019-05-30T03:28:33.134Z,9.63
2019-05-30T03:31:05.930Z,9.64
2019-05-30T03:33:40.870Z,9.68
2019-05-30T03:36:09.010Z,9.68
2019-05-30T03:38:33.706Z,9.59
2019-05-30T03:41:02.271Z,9.70
2019-05-30T03:43:30.794Z,9.71
2019-05-30T03:45:59.355Z,9.79
2019-05-30T03:48:29.926Z,9.77
2019-05-30T03:51:00.501Z,9.67
2019-05-30T03:53:29.368Z,9.69
2019-05-30T03:56:00.861Z,9.72
2019-05-30T03:58:44.399Z,9.75
2019-05-30T04:01:18.923Z,9.90
2019-05-30T04:03:50.921Z,10.06
2019-05-30T04:06:31.296Z,9.88
2019-05-30T04:09:04.569Z,10.04
2019-05-30T04:11:41.920Z,10.20
2019-05-30T04:14:15.741Z,10.31
2019-05-30T04:16:43.593Z,10.31
2019-05-30T04:19:13.139Z,10.28
2019-05-30T04:21:42.212Z,10.28
2019-05-30T04:24:12.345Z,10.54
2019-05-30T04:26:40.877Z,10.70
2019-05-30T04:29:15.051Z,10.86
2019-05-30T04:31:43.066Z,10.94
2019-05-30T04:34:12.575Z,11.03
2019-05-30T04:36:41.708Z,11.37
2019-05-30T04:39:11.322Z,11.81
2019-05-30T04:41:40.440Z,12.44
2019-05-30T04:44:09.788Z,12.41
2019-05-30T04:46:39.062Z,12.55
2019-05-30T04:49:07.567Z,13.14
2019-05-30T04:51:36.319Z,13.01
2019-05-30T04:54:04.998Z,13.23
2019-05-30T04:56:33.415Z,13.25
2019-05-30T04:59:01.916Z,13.33
2019-05-30T05:01:30.369Z,13.12
2019-05-30T05:03:58.871Z,13.11
2019-05-30T05:06:27.335Z,13.01
2019-05-30T05:08:55.757Z,12.74
2019-05-30T05:11:25.341Z,13.14
2019-05-30T05:13:54.028Z,13.55
2019-05-30T05:16:33.939Z,13.99
2019-05-30T05:18:52.609Z,13.74
2019-05-30T05:21:21.267Z,13.86
2019-05-30T05:23:49.765Z,13.93
2019-05-30T05:26:18.194Z,14.01
2019-05-30T05:28:46.663Z,13.80
2019-05-30T05:31:16.355Z,13.72
2019-05-30T05:33:56.099Z,13.54
2019-05-30T05:36:15.245Z,13.61
2019-05-30T05:38:43.736Z,13.62
2019-05-30T05:41:12.236Z,13.67
2019-05-30T05:43:40.849Z,13.87
2019-05-30T05:46:09.351Z,13.96
2019-05-30T05:48:37.777Z,14.30
2019-05-30T05:51:06.403Z,14.24
2019-05-30T05:53:34.879Z,14.53
2019-05-30T05:56:03.380Z,14.59
2019-05-30T05:58:31.837Z,14.64
2019-05-30T06:01:00.279Z,14.33
2019-05-30T06:03:28.714Z,14.27
2019-05-30T06:05:57.176Z,14.14
2019-05-30T06:08:25.938Z,14.27
2019-05-30T06:10:54.396Z,14.41
2019-05-30T06:13:23.047Z,14.60
2019-05-30T06:15:51.483Z,14.60
2019-05-30T06:18:20.222Z,14.89
2019-05-30T06:20:48.892Z,15.38
2019-05-30T06:23:17.415Z,15.16
2019-05-30T06:25:45.829Z,15.16
2019-05-30T06:28:14.374Z,15.36
2019-05-30T06:30:42.813Z,15.57
2019-05-30T06:33:11.250Z,15.51
2019-05-30T06:35:39.711Z,15.99
2019-05-30T06:38:08.213Z,16.12
2019-05-30T06:40:36.821Z,16.16
2019-05-30T06:43:05.386Z,15.53
2019-05-30T06:45:33.818Z,16.11
2019-05-30T06:48:02.250Z,16.47
2019-05-30T06:50:30.974Z,16.81
2019-05-30T06:52:59.422Z,17.04
2019-05-30T06:55:29.420Z,16.85
2019-05-30T06:57:58.146Z,16.68
2019-05-30T07:00:28.121Z,17.12
2019-05-30T07:02:56.850Z,17.69
2019-05-30T07:05:27.674Z,17.45
2019-05-30T07:07:55.614Z,17.98
2019-05-30T07:10:24.874Z,17.27
2019-05-30T07:12:53.418Z,17.35
2019-05-30T07:15:23.130Z,16.74
2019-05-30T07:17:51.695Z,17.40
2019-05-30T07:20:20.522Z,17.53
2019-05-30T07:22:48.957Z,17.96
2019-05-30T07:25:18.421Z,18.02
2019-05-30T07:27:46.913Z,17.55
2019-05-30T07:30:17.288Z,17.61
2019-05-30T07:32:45.722Z,17.68
2019-05-30T07:35:14.692Z,17.70
2019-05-30T07:37:46.415Z,17.68
2019-05-30T07:40:18.643Z,18.04
2019-05-30T07:42:44.180Z,17.69
2019-05-30T07:45:14.721Z,17.62
2019-05-30T07:47:43.218Z,17.87
2019-05-30T07:50:12.219Z,18.01
2019-05-30T07:52:41.310Z,18.49
2019-05-30T07:55:10.986Z,18.18
2019-05-30T07:57:41.340Z,18.70
2019-05-30T08:00:11.998Z,18.22
2019-05-30T08:02:40.502Z,18.34
2019-05-30T08:05:23.470Z,18.21
2019-05-30T08:07:40.080Z,18.16
2019-05-30T08:10:09.763Z,17.98
2019-05-30T08:12:38.519Z,18.05
2019-05-30T08:15:08.763Z,18.40
2019-05-30T08:17:37.891Z,18.76
2019-05-30T08:20:07.724Z,18.24
2019-05-30T08:22:36.296Z,18.06
2019-05-30T08:25:09.081Z,18.55
2019-05-30T08:27:38.673Z,18.75
2019-05-30T08:30:08.472Z,18.60
2019-05-30T08:32:37.014Z,18.29
2019-05-30T08:35:06.784Z,18.47
2019-05-30T08:37:35.247Z,18.29
2019-05-30T08:40:05.417Z,18.20
2019-05-30T08:42:33.868Z,18.30
2019-05-30T08:45:02.366Z,18.39
2019-05-30T08:47:31.860Z,18.51
2019-05-30T08:50:00.337Z,18.59
2019-05-30T08:52:30.262Z,19.03
2019-05-30T08:54:58.875Z,19.31
2019-05-30T08:57:27.358Z,19.71
2019-05-30T08:59:55.784Z,19.82
2019-05-30T09:02:24.282Z,20.12
2019-05-30T09:04:52.867Z,19.12
2019-05-30T09:07:21.393Z,19.38
2019-05-30T09:09:49.825Z,19.65
2019-05-30T09:12:18.296Z,19.62
2019-05-30T09:14:46.988Z,19.81
2019-05-30T09:17:15.596Z,20.19
2019-05-30T09:19:45.336Z,20.43
2019-05-30T09:22:14.019Z,19.92
2019-05-30T09:24:43.810Z,19.77
2019-05-30T09:27:12.465Z,19.74
2019-05-30T09:29:42.466Z,20.06
2019-05-30T09:32:11.400Z,20.33
2019-05-30T09:34:41.516Z,20.47
2019-05-30T09:37:10.161Z,20.78
2019-05-30T09:39:39.134Z,21.14
2019-05-30T09:42:08.553Z,20.85
2019-05-30T09:44:36.982Z,20.75
2019-05-30T09:47:06.663Z,20.94
2019-05-30T09:49:35.120Z,20.77
2019-05-30T09:52:03.647Z,20.57
2019-05-30T09:54:32.077Z,20.69
2019-05-30T09:57:00.841Z,20.71
2019-05-30T09:59:29.270Z,20.90
2019-05-30T10:01:57.706Z,20.78
2019-05-30T10:04:26.273Z,21.53
2019-05-30T10:06:54.717Z,21.18
2019-05-30T10:09:23.228Z,21.48
2019-05-30T10:11:51.755Z,21.15
2019-05-30T10:14:20.258Z,21.18
2019-05-30T10:16:54.437Z,21.67
2019-05-30T10:19:18.956Z,21.42
2019-05-30T10:21:48.907Z,21.29
2019-05-30T10:24:17.497Z,21.74
2019-05-30T10:26:47.134Z,21.89
2019-05-30T10:29:15.696Z,21.31
2019-05-30T10:31:45.009Z,21.54
2019-05-30T10:34:14.413Z,21.52
2019-05-30T10:36:44.496Z,21.97
2019-05-30T10:39:13.034Z,22.66
2019-05-30T10:41:43.221Z,22.54
2019-05-30T10:44:11.650Z,22.52
2019-05-30T10:46:40.093Z,22.79
2019-05-30T10:49:08.554Z,22.47
2019-05-30T10:51:37.058Z,22.74
2019-05-30T10:54:05.623Z,22.58
2019-05-30T10:56:34.212Z,22.31
2019-05-30T10:59:02.781Z,22.43
2019-05-30T11:01:31.291Z,22.14
2019-05-30T11:03:59.744Z,22.50
2019-05-30T11:06:34.475Z,22.45
2019-05-30T11:09:04.701Z,22.51
2019-05-30T11:11:33.136Z,22.36
2019-05-30T11:14:01.775Z,22.35
2019-05-30T11:16:30.232Z,22.29
2019-05-30T11:18:58.673Z,22.54
2019-05-30T11:21:27.117Z,22.35
2019-05-30T11:23:56.768Z,22.14
2019-05-30T11:26:25.296Z,22.00
2019-05-30T11:28:54.790Z,22.22
2019-05-30T11:31:23.399Z,22.28
2019-05-30T11:33:52.875Z,22.66
2019-05-30T11:36:21.337Z,22.41
2019-05-30T11:38:51.986Z,22.87
2019-05-30T11:41:20.749Z,22.87
2019-05-30T11:43:49.383Z,22.66
2019-05-30T11:46:17.850Z,22.97
2019-05-30T11:48:46.349Z,22.75
2019-05-30T11:51:14.928Z,22.69
2019-05-30T11:53:43.358Z,22.47
2019-05-30T11:56:11.790Z,22.41
2019-05-30T11:58:40.325Z,22.32
2019-05-30T12:01:08.824Z,22.39
2019-05-30T12:03:37.326Z,22.56
2019-05-30T12:06:05.949Z,22.70
2019-05-30T12:08:34.438Z,22.38
2019-05-30T12:11:02.885Z,22.39
2019-05-30T12:13:31.346Z,22.51
2019-05-30T12:15:59.772Z,22.57
2019-05-30T12:18:28.290Z,22.16
2019-05-30T12:20:57.800Z,22.02
2019-05-30T12:23:26.277Z,22.08
2019-05-30T12:25:55.920Z,22.18
2019-05-30T12:28:24.532Z,21.59
2019-05-30T12:30:59.050Z,21.48
2019-05-30T12:33:23.120Z,21.51
2019-05-30T12:35:52.404Z,21.77
2019-05-30T12:38:20.923Z,21.74
2019-05-30T12:40:49.360Z,21.48
2019-05-30T12:43:17.817Z,21.51
2019-05-30T12:45:46.250Z,21.25
2019-05-30T12:48:14.683Z,21.32
2019-05-30T12:50:43.154Z,21.24
2019-05-30T12:53:11.590Z,20.99
2019-05-30T12:55:40.029Z,21.10
2019-05-30T12:58:08.582Z,21.22
2019-05-30T13:00:38.471Z,21.46
2019-05-30T13:03:07.357Z,21.67
2019-05-30T13:05:35.940Z,21.56
2019-05-30T13:08:17.973Z,21.61
2019-05-30T13:10:34.786Z,21.72
2019-05-30T13:13:04.093Z,22.03
2019-05-30T13:15:32.605Z,21.88
2019-05-30T13:18:01.029Z,21.86
2019-05-30T13:20:29.781Z,21.77
2019-05-30T13:22:58.489Z,22.32
2019-05-30T13:25:27.158Z,22.32
2019-05-30T13:28:03.267Z,22.34
2019-05-30T13:30:27.048Z,22.64
2019-05-30T13:32:56.579Z,22.39
2019-05-30T13:35:25.304Z,22.25
2019-05-30T13:37:53.734Z,22.20
2019-05-30T13:40:25.394Z,22.45
2019-05-30T13:42:52.912Z,22.30
2019-05-30T13:45:21.484Z,22.52
2019-05-30T13:47:49.992Z,22.34
2019-05-30T13:50:18.803Z,22.61
2019-05-30T13:52:47.245Z,22.76
2019-05-30T13:55:15.815Z,22.20
2019-05-30T13:57:44.288Z,22.21
2019-05-30T14:00:15.462Z,22.43
2019-05-30T14:02:43.900Z,22.58
2019-05-30T14:05:13.102Z,22.60
2019-05-30T14:07:41.607Z,22.43
2019-05-30T14:10:11.188Z,22.15
2019-05-30T14:12:39.841Z,22.31
2019-05-30T14:15:14.063Z,22.32
2019-05-30T14:17:40.931Z,22.11
2019-05-30T14:20:11.266Z,22.31
2019-05-30T14:22:40.025Z,22.39
2019-05-30T14:25:10.009Z,22.27
2019-05-30T14:27:38.891Z,22.18
2019-05-30T14:30:09.194Z,22.81
2019-05-30T14:32:37.707Z,22.57
2019-05-30T14:35:08.495Z,22.75
2019-05-30T14:37:37.089Z,22.48
2019-05-30T14:40:14.189Z,22.49
2019-05-30T14:42:42.789Z,22.57
2019-05-30T14:45:14.535Z,22.33
2019-05-30T14:47:43.292Z,22.26
2019-05-30T14:50:13.182Z,22.40
2019-05-30T14:52:41.795Z,22.14
2019-05-30T14:55:13.084Z,22.31
2019-05-30T14:57:41.727Z,22.35
2019-05-30T15:00:13.652Z,22.43
2019-05-30T15:02:42.818Z,22.71
2019-05-30T15:05:11.815Z,22.27
2019-05-30T15:07:40.315Z,22.41
2019-05-30T15:10:10.523Z,22.47
2019-05-30T15:12:39.212Z,22.74
2019-05-30T15:15:12.413Z,22.49
2019-05-30T15:17:39.337Z,22.95
2019-05-30T15:20:10.261Z,22.85
2019-05-30T15:22:38.907Z,22.73
2019-05-30T15:25:08.196Z,22.95
2019-05-30T15:27:37.102Z,23.01
2019-05-30T15:30:10.620Z,22.88
2019-05-30T15:32:39.304Z,22.69
2019-05-30T15:35:08.883Z,22.80
2019-05-30T15:37:40.611Z,22.53
2019-05-30T15:40:08.892Z,22.83
2019-05-30T15:42:37.423Z,22.48
2019-05-30T15:45:09.758Z,22.49
2019-05-30T15:47:38.514Z,22.38
2019-05-30T15:50:10.510Z,22.38
2019-05-30T15:52:39.151Z,22.57
2019-05-30T15:55:09.274Z,22.35
2019-05-30T15:57:37.887Z,22.38
2019-05-30T16:00:12.253Z,22.64
2019-05-30T16:02:41.055Z,23.03
2019-05-30T16:05:10.484Z,22.81
2019-05-30T16:07:39.030Z,22.85
2019-05-30T16:10:08.433Z,22.43
2019-05-30T16:12:36.863Z,22.75
2019-05-30T16:15:08.419Z,22.78
2019-05-30T16:17:36.950Z,22.59
2019-05-30T16:20:08.793Z,22.53
2019-05-30T16:22:37.304Z,22.73
2019-05-30T16:25:07.230Z,22.66
2019-05-30T16:27:35.738Z,22.63
2019-05-30T16:30:06.581Z,22.69
2019-05-30T16:32:35.079Z,22.28
2019-05-30T16:35:04.457Z,22.56
2019-05-30T16:37:32.902Z,22.46
2019-05-30T16:40:06.298Z,22.64
2019-05-30T16:42:31.718Z,22.62
2019-05-30T16:45:00.156Z,22.70
2019-05-30T16:47:28.608Z,22.31
2019-05-30T16:49:57.049Z,22.45
2019-05-30T16:52:25.495Z,22.61
2019-05-30T16:54:53.960Z,22.98
2019-05-30T16:57:22.713Z,22.85
2019-05-30T16:59:51.250Z,22.66
2019-05-30T17:02:20.742Z,22.47
2019-05-30T17:04:49.337Z,22.63
2019-05-30T17:07:19.030Z,22.50
2019-05-30T17:09:47.774Z,22.79
2019-05-30T17:12:17.328Z,22.31
2019-05-30T17:14:46.025Z,22.73
2019-05-30T17:17:16.119Z,22.42
2019-05-30T17:19:44.859Z,22.81
2019-05-30T17:22:13.226Z,22.89
2019-05-30T17:24:41.742Z,23.08
2019-05-30T17:27:10.269Z,22.55
2019-05-30T17:29:38.706Z,22.75
2019-05-30T17:32:07.284Z,22.33
2019-05-30T17:34:35.715Z,22.17
2019-05-30T17:37:04.214Z,22.52
2019-05-30T17:39:32.758Z,22.16
2019-05-30T17:42:01.205Z,22.47
2019-05-30T17:44:29.914Z,22.18
2019-05-30T17:46:58.426Z,22.02
2019-05-30T17:49:27.865Z,22.08
2019-05-30T17:51:56.487Z,22.03
2019-05-30T17:54:25.998Z,21.80
2019-05-30T17:56:54.478Z,21.75
2019-05-30T17:59:24.251Z,21.65
2019-05-30T18:01:52.871Z,21.65
2019-05-30T18:04:22.471Z,21.78
2019-05-30T18:06:51.100Z,21.82
2019-05-30T18:09:20.768Z,22.01
2019-05-30T18:11:52.197Z,21.84
2019-05-30T18:14:19.522Z,21.84
2019-05-30T18:16:47.992Z,21.75
2019-05-30T18:19:16.559Z,21.53
2019-05-30T18:21:45.006Z,21.49
2019-05-30T18:24:13.534Z,21.97
2019-05-30T18:26:41.963Z,21.52
2019-05-30T18:29:10.461Z,21.38
2019-05-30T18:31:38.993Z,21.33
2019-05-30T18:34:07.500Z,21.19
2019-05-30T18:36:35.924Z,21.13
2019-05-30T18:46:02.554Z,20.91
2019-05-30T18:48:31.498Z,20.78
2019-05-30T18:51:00.088Z,20.76
2019-05-30T18:53:28.632Z,20.87
2019-05-30T18:55:57.103Z,20.60
2019-05-30T18:58:26.705Z,20.37
2019-05-30T19:00:55.422Z,20.24
2019-05-30T19:03:24.489Z,20.23
2019-05-30T19:05:53.212Z,20.18
2019-05-30T19:08:21.676Z,20.16
2019-05-30T19:10:50.180Z,20.06
2019-05-30T19:13:18.628Z,19.94
2019-05-30T19:15:47.210Z,19.92
2019-05-30T19:18:15.648Z,19.89
2019-05-30T19:20:44.089Z,19.95
2019-05-30T19:23:12.559Z,19.76
2019-05-30T19:25:41.004Z,19.62
2019-05-30T19:28:09.453Z,19.62
2019-05-30T19:30:41.002Z,19.73
2019-05-30T19:33:08.111Z,19.52
2019-05-30T19:35:37.514Z,19.63
2019-05-30T19:38:06.232Z,19.53
2019-05-30T19:40:35.851Z,19.47
2019-05-30T19:43:04.463Z,19.36
2019-05-30T19:45:34.073Z,19.38
2019-05-30T19:48:02.681Z,19.24
2019-05-30T19:50:31.116Z,19.39
2019-05-30T19:52:59.783Z,19.44
2019-05-30T19:55:29.088Z,19.68
2019-05-30T19:57:57.702Z,19.45
2019-05-30T20:00:26.394Z,19.28
2019-05-30T20:02:54.838Z,19.41
2019-05-30T20:05:23.358Z,19.30
2019-05-30T20:07:51.832Z,19.29
2019-05-30T20:10:21.417Z,19.23
2019-05-30T20:12:49.840Z,19.22
2019-05-30T20:15:18.830Z,19.22
2019-05-30T20:17:47.279Z,19.08
2019-05-30T20:20:16.412Z,19.16
2019-05-30T20:22:44.915Z,19.11
2019-05-30T20:25:15.185Z,19.06
2019-05-30T20:27:43.628Z,19.17
2019-05-30T20:30:14.010Z,19.08
2019-05-30T20:32:43.291Z,19.07
2019-05-30T20:35:12.190Z,19.09
2019-05-30T20:37:40.904Z,19.00
2019-05-30T20:40:10.458Z,18.91
2019-05-30T20:42:39.112Z,18.78
2019-05-30T20:45:10.052Z,18.62
2019-05-30T20:47:40.205Z,18.76
2019-05-30T20:50:09.924Z,18.61
2019-05-30T20:52:41.520Z,18.41
2019-05-30T20:55:10.154Z,18.41
2019-05-30T20:57:38.586Z,18.56
2019-05-30T21:00:09.269Z,18.62
2019-05-30T21:02:39.098Z,18.50
2019-05-30T21:05:08.581Z,18.62
2019-05-30T21:07:37.853Z,18.63
2019-05-30T21:10:08.527Z,18.57
2019-05-30T21:12:41.281Z,18.58
2019-05-30T21:15:08.496Z,18.55
2019-05-30T21:17:37.746Z,18.44
2019-05-30T21:20:11.133Z,18.30
2019-05-30T21:22:38.241Z,18.34
2019-05-30T21:25:08.117Z,18.14
2019-05-30T21:27:36.932Z,18.20
2019-05-30T21:30:09.051Z,18.33
2019-05-30T21:32:38.317Z,18.34
2019-05-30T21:35:08.232Z,18.47
2019-05-30T21:37:37.610Z,17.92
2019-05-30T21:40:08.082Z,18.03
2019-05-30T21:42:54.640Z,18.14
2019-05-30T21:45:08.047Z,17.94
2019-05-30T21:47:36.544Z,18.02
2019-05-30T21:50:06.883Z,17.83
2019-05-30T21:52:35.599Z,17.78
2019-05-30T21:55:07.558Z,17.94
2019-05-30T21:57:36.067Z,17.74
2019-05-30T22:00:10.532Z,17.60
2019-05-30T22:02:40.230Z,17.63
2019-05-30T22:05:09.085Z,17.82
2019-05-30T22:07:37.615Z,17.91
2019-05-30T22:10:06.391Z,17.85
2019-05-30T22:12:34.821Z,18.05
2019-05-30T22:15:03.363Z,18.16
2019-05-30T22:17:31.793Z,17.95
2019-05-30T22:20:00.228Z,18.02
2019-05-30T22:22:28.743Z,18.19
2019-05-30T22:24:57.254Z,18.15
2019-05-30T22:27:25.692Z,18.03
2019-05-30T22:29:54.153Z,17.99
2019-05-30T22:32:22.583Z,17.85
2019-05-30T22:34:53.001Z,17.82
2019-05-30T22:37:21.485Z,17.80
2019-05-30T22:39:50.942Z,17.85
2019-05-30T22:42:19.431Z,17.66
2019-05-30T22:44:48.041Z,17.56
2019-05-30T22:47:16.511Z,17.70
2019-05-30T22:49:44.946Z,17.57
2019-05-30T22:52:13.403Z,17.55
2019-05-30T22:54:41.848Z,17.44
2019-05-30T22:57:10.273Z,17.46
2019-05-30T22:59:38.821Z,17.60
2019-05-30T23:02:07.322Z,17.59
2019-05-30T23:04:35.753Z,17.67
2019-05-30T23:07:04.474Z,17.76
2019-05-30T23:09:32.903Z,17.76
2019-05-30T23:12:01.374Z,17.65
2019-05-30T23:14:29.826Z,17.48
2019-05-30T23:16:58.265Z,17.44
2019-05-30T23:19:26.689Z,17.46
2019-05-30T23:21:55.193Z,17.43
2019-05-30T23:24:23.617Z,17.54
2019-05-30T23:26:52.044Z,17.49
2019-05-30T23:29:20.514Z,17.40
2019-05-30T23:31:49.894Z,17.45
2019-05-30T23:34:18.438Z,17.27
2019-05-30T23:36:48.442Z,17.25
2019-05-30T23:39:16.985Z,17.23
2019-05-30T23:41:46.920Z,17.25
2019-05-30T23:44:15.450Z,17.22
2019-05-30T23:46:43.880Z,17.26
2019-05-30T23:49:12.316Z,17.18
2019-05-30T23:51:40.920Z,17.09
2019-05-30T23:54:09.349Z,17.06
2019-05-30T23:56:37.789Z,17.05
2019-05-30T23:59:06.417Z,16.97
